sensor_id;sensor_type;location;lat;lon;timestamp;P1;durP1;ratioP1;P2;durP2;ratioP2
20832;SDS011;56075;51.264;7.150;2024-01-15T00:01:19;57.87;;;15.83;;
20832;SDS011;56075;51.264;7.150;2024-01-15T00:03:50;69.37;;;16.90;;
20832;SDS011;56075;51.264;7.150;2024-01-15T00:06:22;58.00;;;16.17;;
20832;SDS011;56075;51.264;7.150;2024-01-15T00:08:53;65.97;;;16.87;;
20832;SDS011;56075;51.264;7.150;2024-01-15T00:11:25;75.70;;;17.70;;
20832;SDS011;56075;51.264;7.150;2024-01-15T00:13:56;70.67;;;19.53;;
20832;SDS011;56075;51.264;7.150;2024-01-15T00:16:28;65.63;;;17.77;;
20832;SDS011;56075;51.264;7.150;2024-01-15T00:18:59;71.10;;;17.73;;
20832;SDS011;56075;51.264;7.150;2024-01-15T00:21:30;64.83;;;16.70;;
20832;SDS011;56075;51.264;7.150;2024-01-15T00:24:02;63.47;;;17.80;;
20832;SDS011;56075;51.264;7.150;2024-01-15T00:26:33;64.17;;;16.90;;
20832;SDS011;56075;51.264;7.150;2024-01-15T00:29:06;68.87;;;19.10;;
20832;SDS011;56075;51.264;7.150;2024-01-15T00:31:38;63.67;;;18.07;;
20832;SDS011;56075;51.264;7.150;2024-01-15T00:34:09;61.70;;;17.67;;
20832;SDS011;56075;51.264;7.150;2024-01-15T00:36:41;52.03;;;15.37;;
20832;SDS011;56075;51.264;7.150;2024-01-15T00:39:12;56.63;;;17.20;;
20832;SDS011;56075;51.264;7.150;2024-01-15T00:41:44;56.30;;;16.03;;
20832;SDS011;56075;51.264;7.150;2024-01-15T00:44:15;58.93;;;15.40;;
20832;SDS011;56075;51.264;7.150;2024-01-15T00:46:46;61.60;;;16.93;;
20832;SDS011;56075;51.264;7.150;2024-01-15T00:49:18;55.93;;;15.60;;
20832;SDS011;56075;51.264;7.150;2024-01-15T00:51:49;57.13;;;15.97;;
20832;SDS011;56075;51.264;7.150;2024-01-15T00:54:21;50.60;;;14.83;;
20832;SDS011;56075;51.264;7.150;2024-01-15T00:56:52;64.90;;;16.77;;
20832;SDS011;56075;51.264;7.150;2024-01-15T00:59:25;68.23;;;18.17;;
20832;SDS011;56075;51.264;7.150;2024-01-15T01:01:56;61.07;;;16.77;;
20832;SDS011;56075;51.264;7.150;2024-01-15T01:04:28;65.77;;;17.87;;
20832;SDS011;56075;51.264;7.150;2024-01-15T01:06:59;62.47;;;16.53;;
20832;SDS011;56075;51.264;7.150;2024-01-15T01:09:30;64.10;;;16.83;;
20832;SDS011;56075;51.264;7.150;2024-01-15T01:12:02;71.00;;;18.17;;
20832;SDS011;56075;51.264;7.150;2024-01-15T01:14:33;65.20;;;16.70;;
20832;SDS011;56075;51.264;7.150;2024-01-15T01:17:05;67.40;;;18.00;;
20832;SDS011;56075;51.264;7.150;2024-01-15T01:19:36;70.83;;;19.10;;
20832;SDS011;56075;51.264;7.150;2024-01-15T01:22:08;55.10;;;16.63;;
20832;SDS011;56075;51.264;7.150;2024-01-15T01:24:39;63.37;;;17.57;;
20832;SDS011;56075;51.264;7.150;2024-01-15T01:27:11;59.97;;;17.00;;
20832;SDS011;56075;51.264;7.150;2024-01-15T01:29:42;56.47;;;16.73;;
20832;SDS011;56075;51.264;7.150;2024-01-15T01:32:14;60.50;;;17.77;;
20832;SDS011;56075;51.264;7.150;2024-01-15T01:34:45;66.87;;;17.93;;
20832;SDS011;56075;51.264;7.150;2024-01-15T01:37:17;63.53;;;17.13;;
20832;SDS011;56075;51.264;7.150;2024-01-15T01:39:48;73.93;;;18.07;;
20832;SDS011;56075;51.264;7.150;2024-01-15T01:42:19;62.50;;;18.57;;
20832;SDS011;56075;51.264;7.150;2024-01-15T01:44:51;61.30;;;16.67;;
20832;SDS011;56075;51.264;7.150;2024-01-15T01:47:22;63.63;;;18.07;;
20832;SDS011;56075;51.264;7.150;2024-01-15T01:49:56;60.80;;;16.93;;
20832;SDS011;56075;51.264;7.150;2024-01-15T01:52:28;60.93;;;16.53;;
20832;SDS011;56075;51.264;7.150;2024-01-15T01:55:00;71.57;;;16.63;;
20832;SDS011;56075;51.264;7.150;2024-01-15T01:57:32;66.57;;;19.97;;
20832;SDS011;56075;51.264;7.150;2024-01-15T02:00:05;62.47;;;19.00;;
20832;SDS011;56075;51.264;7.150;2024-01-15T02:02:42;56.73;;;15.67;;
20832;SDS011;56075;51.264;7.150;2024-01-15T02:05:14;50.83;;;16.00;;
20832;SDS011;56075;51.264;7.150;2024-01-15T02:07:49;58.10;;;16.17;;
20832;SDS011;56075;51.264;7.150;2024-01-15T02:10:21;67.27;;;17.00;;
20832;SDS011;56075;51.264;7.150;2024-01-15T02:12:52;54.50;;;15.77;;
20832;SDS011;56075;51.264;7.150;2024-01-15T02:15:24;58.30;;;16.03;;
20832;SDS011;56075;51.264;7.150;2024-01-15T02:17:56;66.37;;;18.50;;
20832;SDS011;56075;51.264;7.150;2024-01-15T02:20:27;72.20;;;19.53;;
20832;SDS011;56075;51.264;7.150;2024-01-15T02:23:05;71.43;;;20.40;;
20832;SDS011;56075;51.264;7.150;2024-01-15T02:25:39;64.03;;;18.17;;
20832;SDS011;56075;51.264;7.150;2024-01-15T02:28:12;66.40;;;19.83;;
20832;SDS011;56075;51.264;7.150;2024-01-15T02:30:44;69.90;;;19.07;;
20832;SDS011;56075;51.264;7.150;2024-01-15T02:33:16;73.07;;;18.33;;
20832;SDS011;56075;51.264;7.150;2024-01-15T02:35:47;64.87;;;18.73;;
20832;SDS011;56075;51.264;7.150;2024-01-15T02:38:20;65.73;;;16.87;;
20832;SDS011;56075;51.264;7.150;2024-01-15T02:40:52;83.27;;;22.20;;
20832;SDS011;56075;51.264;7.150;2024-01-15T02:43:23;62.77;;;17.90;;
20832;SDS011;56075;51.264;7.150;2024-01-15T02:45:54;70.43;;;18.03;;
20832;SDS011;56075;51.264;7.150;2024-01-15T02:48:26;65.03;;;16.93;;
20832;SDS011;56075;51.264;7.150;2024-01-15T02:50:57;57.80;;;15.93;;
20832;SDS011;56075;51.264;7.150;2024-01-15T02:53:29;67.73;;;17.80;;
20832;SDS011;56075;51.264;7.150;2024-01-15T02:56:00;78.77;;;18.73;;
20832;SDS011;56075;51.264;7.150;2024-01-15T02:58:31;62.70;;;16.97;;
20832;SDS011;56075;51.264;7.150;2024-01-15T03:01:03;66.53;;;17.30;;
20832;SDS011;56075;51.264;7.150;2024-01-15T03:03:34;68.97;;;18.50;;
20832;SDS011;56075;51.264;7.150;2024-01-15T03:06:06;74.00;;;18.43;;
20832;SDS011;56075;51.264;7.150;2024-01-15T03:08:38;70.37;;;19.87;;
20832;SDS011;56075;51.264;7.150;2024-01-15T03:11:11;66.40;;;17.10;;
20832;SDS011;56075;51.264;7.150;2024-01-15T03:13:42;60.03;;;15.87;;
20832;SDS011;56075;51.264;7.150;2024-01-15T03:16:14;69.40;;;17.67;;
20832;SDS011;56075;51.264;7.150;2024-01-15T03:18:46;64.77;;;17.17;;
20832;SDS011;56075;51.264;7.150;2024-01-15T03:21:18;54.17;;;15.50;;
20832;SDS011;56075;51.264;7.150;2024-01-15T03:23:49;60.63;;;15.13;;
20832;SDS011;56075;51.264;7.150;2024-01-15T03:26:21;65.07;;;17.43;;
20832;SDS011;56075;51.264;7.150;2024-01-15T03:28:52;53.37;;;14.73;;
20832;SDS011;56075;51.264;7.150;2024-01-15T03:31:23;47.20;;;12.77;;
20832;SDS011;56075;51.264;7.150;2024-01-15T03:33:55;71.80;;;17.70;;
20832;SDS011;56075;51.264;7.150;2024-01-15T03:36:26;56.63;;;16.07;;
20832;SDS011;56075;51.264;7.150;2024-01-15T03:38:58;56.30;;;15.53;;
20832;SDS011;56075;51.264;7.150;2024-01-15T03:41:29;45.33;;;13.90;;
20832;SDS011;56075;51.264;7.150;2024-01-15T03:44:00;47.73;;;13.23;;
20832;SDS011;56075;51.264;7.150;2024-01-15T03:46:32;50.43;;;13.87;;
20832;SDS011;56075;51.264;7.150;2024-01-15T03:49:03;50.27;;;16.10;;
20832;SDS011;56075;51.264;7.150;2024-01-15T03:51:35;47.23;;;14.23;;
20832;SDS011;56075;51.264;7.150;2024-01-15T03:54:06;48.03;;;14.03;;
20832;SDS011;56075;51.264;7.150;2024-01-15T03:56:37;41.27;;;12.37;;
20832;SDS011;56075;51.264;7.150;2024-01-15T03:59:09;46.60;;;13.20;;
20832;SDS011;56075;51.264;7.150;2024-01-15T04:01:40;49.40;;;14.20;;
20832;SDS011;56075;51.264;7.150;2024-01-15T04:04:12;49.93;;;15.37;;
20832;SDS011;56075;51.264;7.150;2024-01-15T04:06:43;46.67;;;14.37;;
20832;SDS011;56075;51.264;7.150;2024-01-15T04:09:14;39.93;;;11.83;;
20832;SDS011;56075;51.264;7.150;2024-01-15T04:11:46;45.27;;;13.13;;
20832;SDS011;56075;51.264;7.150;2024-01-15T04:14:17;39.73;;;11.97;;
20832;SDS011;56075;51.264;7.150;2024-01-15T04:16:49;40.33;;;13.03;;
20832;SDS011;56075;51.264;7.150;2024-01-15T04:19:20;45.70;;;12.60;;
20832;SDS011;56075;51.264;7.150;2024-01-15T04:21:51;38.33;;;12.73;;
20832;SDS011;56075;51.264;7.150;2024-01-15T04:24:23;41.17;;;12.97;;
20832;SDS011;56075;51.264;7.150;2024-01-15T04:26:54;37.13;;;10.97;;
20832;SDS011;56075;51.264;7.150;2024-01-15T04:29:26;44.90;;;11.97;;
20832;SDS011;56075;51.264;7.150;2024-01-15T04:31:57;36.83;;;11.37;;
20832;SDS011;56075;51.264;7.150;2024-01-15T04:34:29;45.63;;;12.33;;
20832;SDS011;56075;51.264;7.150;2024-01-15T04:37:00;33.17;;;11.40;;
20832;SDS011;56075;51.264;7.150;2024-01-15T04:39:31;37.70;;;11.97;;
20832;SDS011;56075;51.264;7.150;2024-01-15T04:42:03;37.53;;;12.10;;
20832;SDS011;56075;51.264;7.150;2024-01-15T04:44:35;40.93;;;12.63;;
20832;SDS011;56075;51.264;7.150;2024-01-15T04:47:06;35.80;;;10.10;;
20832;SDS011;56075;51.264;7.150;2024-01-15T04:49:37;32.67;;;10.93;;
20832;SDS011;56075;51.264;7.150;2024-01-15T04:52:09;32.00;;;11.27;;
20832;SDS011;56075;51.264;7.150;2024-01-15T04:54:43;34.00;;;11.37;;
20832;SDS011;56075;51.264;7.150;2024-01-15T04:57:15;35.70;;;11.00;;
20832;SDS011;56075;51.264;7.150;2024-01-15T04:59:46;39.87;;;11.37;;
20832;SDS011;56075;51.264;7.150;2024-01-15T05:02:17;35.63;;;11.83;;
20832;SDS011;56075;51.264;7.150;2024-01-15T05:04:49;35.67;;;11.17;;
20832;SDS011;56075;51.264;7.150;2024-01-15T05:07:20;35.67;;;10.57;;
20832;SDS011;56075;51.264;7.150;2024-01-15T05:09:52;35.47;;;11.00;;
20832;SDS011;56075;51.264;7.150;2024-01-15T05:12:23;37.47;;;11.70;;
20832;SDS011;56075;51.264;7.150;2024-01-15T05:14:55;34.10;;;11.13;;
20832;SDS011;56075;51.264;7.150;2024-01-15T05:17:26;36.30;;;12.07;;
20832;SDS011;56075;51.264;7.150;2024-01-15T05:19:58;34.57;;;11.43;;
20832;SDS011;56075;51.264;7.150;2024-01-15T05:22:29;36.50;;;10.30;;
20832;SDS011;56075;51.264;7.150;2024-01-15T05:25:00;29.37;;;11.37;;
20832;SDS011;56075;51.264;7.150;2024-01-15T05:27:32;33.80;;;10.63;;
20832;SDS011;56075;51.264;7.150;2024-01-15T05:30:03;33.63;;;11.60;;
20832;SDS011;56075;51.264;7.150;2024-01-15T05:32:35;33.20;;;11.17;;
20832;SDS011;56075;51.264;7.150;2024-01-15T05:35:06;34.50;;;10.87;;
20832;SDS011;56075;51.264;7.150;2024-01-15T05:37:39;34.57;;;11.20;;
20832;SDS011;56075;51.264;7.150;2024-01-15T05:40:11;35.43;;;11.23;;
20832;SDS011;56075;51.264;7.150;2024-01-15T05:42:43;34.00;;;12.43;;
20832;SDS011;56075;51.264;7.150;2024-01-15T05:45:15;33.83;;;11.50;;
20832;SDS011;56075;51.264;7.150;2024-01-15T05:47:46;39.10;;;11.23;;
20832;SDS011;56075;51.264;7.150;2024-01-15T05:50:18;34.70;;;10.50;;
20832;SDS011;56075;51.264;7.150;2024-01-15T05:52:49;31.37;;;10.87;;
20832;SDS011;56075;51.264;7.150;2024-01-15T05:55:21;37.57;;;11.17;;
20832;SDS011;56075;51.264;7.150;2024-01-15T05:57:52;33.30;;;9.73;;
20832;SDS011;56075;51.264;7.150;2024-01-15T06:00:23;33.60;;;10.10;;
20832;SDS011;56075;51.264;7.150;2024-01-15T06:02:55;28.90;;;9.47;;
20832;SDS011;56075;51.264;7.150;2024-01-15T06:05:26;33.13;;;10.77;;
20832;SDS011;56075;51.264;7.150;2024-01-15T06:07:58;29.77;;;10.43;;
20832;SDS011;56075;51.264;7.150;2024-01-15T06:10:29;31.53;;;9.80;;
20832;SDS011;56075;51.264;7.150;2024-01-15T06:13:01;31.03;;;10.43;;
20832;SDS011;56075;51.264;7.150;2024-01-15T06:15:32;31.13;;;10.70;;
20832;SDS011;56075;51.264;7.150;2024-01-15T06:18:03;32.90;;;10.00;;
20832;SDS011;56075;51.264;7.150;2024-01-15T06:20:35;26.47;;;8.57;;
20832;SDS011;56075;51.264;7.150;2024-01-15T06:23:07;25.57;;;8.53;;
20832;SDS011;56075;51.264;7.150;2024-01-15T06:25:38;24.40;;;9.43;;
20832;SDS011;56075;51.264;7.150;2024-01-15T06:28:10;29.17;;;9.07;;
20832;SDS011;56075;51.264;7.150;2024-01-15T06:30:41;23.07;;;9.07;;
20832;SDS011;56075;51.264;7.150;2024-01-15T06:33:12;31.07;;;10.43;;
20832;SDS011;56075;51.264;7.150;2024-01-15T06:35:44;29.63;;;9.83;;
20832;SDS011;56075;51.264;7.150;2024-01-15T06:38:15;29.23;;;9.27;;
20832;SDS011;56075;51.264;7.150;2024-01-15T06:40:47;30.10;;;9.53;;
20832;SDS011;56075;51.264;7.150;2024-01-15T06:43:18;29.20;;;10.40;;
20832;SDS011;56075;51.264;7.150;2024-01-15T06:45:50;30.10;;;10.40;;
20832;SDS011;56075;51.264;7.150;2024-01-15T06:48:21;31.33;;;10.83;;
20832;SDS011;56075;51.264;7.150;2024-01-15T06:50:53;26.93;;;10.23;;
20832;SDS011;56075;51.264;7.150;2024-01-15T06:53:24;25.17;;;10.27;;
20832;SDS011;56075;51.264;7.150;2024-01-15T06:55:55;27.67;;;10.17;;
20832;SDS011;56075;51.264;7.150;2024-01-15T06:58:27;28.20;;;8.70;;
20832;SDS011;56075;51.264;7.150;2024-01-15T07:00:58;28.03;;;9.00;;
20832;SDS011;56075;51.264;7.150;2024-01-15T07:03:30;24.53;;;9.07;;
20832;SDS011;56075;51.264;7.150;2024-01-15T07:06:01;30.70;;;9.20;;
20832;SDS011;56075;51.264;7.150;2024-01-15T07:08:33;21.47;;;8.77;;
20832;SDS011;56075;51.264;7.150;2024-01-15T07:11:04;23.60;;;8.10;;
20832;SDS011;56075;51.264;7.150;2024-01-15T07:13:36;23.47;;;7.00;;
20832;SDS011;56075;51.264;7.150;2024-01-15T07:16:08;20.90;;;7.20;;
20832;SDS011;56075;51.264;7.150;2024-01-15T07:18:39;19.20;;;8.20;;
20832;SDS011;56075;51.264;7.150;2024-01-15T07:21:11;22.10;;;7.87;;
20832;SDS011;56075;51.264;7.150;2024-01-15T07:23:42;20.53;;;7.27;;
20832;SDS011;56075;51.264;7.150;2024-01-15T07:26:13;22.97;;;7.73;;
20832;SDS011;56075;51.264;7.150;2024-01-15T07:28:45;22.53;;;6.60;;
20832;SDS011;56075;51.264;7.150;2024-01-15T07:31:17;18.20;;;6.83;;
20832;SDS011;56075;51.264;7.150;2024-01-15T07:33:49;21.20;;;6.83;;
20832;SDS011;56075;51.264;7.150;2024-01-15T07:36:21;15.07;;;5.73;;
20832;SDS011;56075;51.264;7.150;2024-01-15T07:38:52;19.17;;;6.67;;
20832;SDS011;56075;51.264;7.150;2024-01-15T07:41:24;20.85;;;8.35;;
20832;SDS011;56075;51.264;7.150;2024-01-15T07:43:55;17.53;;;7.30;;
20832;SDS011;56075;51.264;7.150;2024-01-15T07:46:26;17.87;;;7.10;;
20832;SDS011;56075;51.264;7.150;2024-01-15T07:48:58;21.53;;;7.47;;
20832;SDS011;56075;51.264;7.150;2024-01-15T07:51:30;15.87;;;6.93;;
20832;SDS011;56075;51.264;7.150;2024-01-15T07:54:01;20.80;;;7.33;;
20832;SDS011;56075;51.264;7.150;2024-01-15T07:56:33;19.57;;;7.47;;
20832;SDS011;56075;51.264;7.150;2024-01-15T07:59:05;26.77;;;9.40;;
20832;SDS011;56075;51.264;7.150;2024-01-15T08:01:36;21.00;;;9.00;;
20832;SDS011;56075;51.264;7.150;2024-01-15T08:04:08;30.73;;;9.87;;
20832;SDS011;56075;51.264;7.150;2024-01-15T08:06:39;28.97;;;9.17;;
20832;SDS011;56075;51.264;7.150;2024-01-15T08:09:11;27.40;;;9.63;;
20832;SDS011;56075;51.264;7.150;2024-01-15T08:11:45;25.57;;;9.10;;
20832;SDS011;56075;51.264;7.150;2024-01-15T08:14:17;34.67;;;10.27;;
20832;SDS011;56075;51.264;7.150;2024-01-15T08:16:48;31.50;;;10.00;;
20832;SDS011;56075;51.264;7.150;2024-01-15T08:19:21;31.67;;;10.77;;
20832;SDS011;56075;51.264;7.150;2024-01-15T08:21:53;28.40;;;8.83;;
20832;SDS011;56075;51.264;7.150;2024-01-15T08:24:24;24.37;;;9.13;;
20832;SDS011;56075;51.264;7.150;2024-01-15T08:26:56;22.83;;;9.30;;
20832;SDS011;56075;51.264;7.150;2024-01-15T08:29:27;25.37;;;10.20;;
20832;SDS011;56075;51.264;7.150;2024-01-15T08:31:59;24.97;;;9.77;;
20832;SDS011;56075;51.264;7.150;2024-01-15T08:34:30;21.83;;;8.73;;
20832;SDS011;56075;51.264;7.150;2024-01-15T08:37:02;25.20;;;10.17;;
20832;SDS011;56075;51.264;7.150;2024-01-15T08:39:33;26.27;;;10.97;;
20832;SDS011;56075;51.264;7.150;2024-01-15T08:42:05;19.97;;;8.43;;
20832;SDS011;56075;51.264;7.150;2024-01-15T08:44:37;25.37;;;8.83;;
20832;SDS011;56075;51.264;7.150;2024-01-15T08:47:11;23.77;;;10.30;;
20832;SDS011;56075;51.264;7.150;2024-01-15T08:49:42;26.43;;;10.27;;
20832;SDS011;56075;51.264;7.150;2024-01-15T08:52:15;21.27;;;8.80;;
20832;SDS011;56075;51.264;7.150;2024-01-15T08:54:47;22.57;;;9.50;;
20832;SDS011;56075;51.264;7.150;2024-01-15T08:57:18;28.43;;;10.47;;
20832;SDS011;56075;51.264;7.150;2024-01-15T08:59:49;25.67;;;9.40;;
20832;SDS011;56075;51.264;7.150;2024-01-15T09:02:21;21.07;;;8.80;;
20832;SDS011;56075;51.264;7.150;2024-01-15T09:04:53;24.00;;;9.13;;
20832;SDS011;56075;51.264;7.150;2024-01-15T09:07:25;19.57;;;8.57;;
20832;SDS011;56075;51.264;7.150;2024-01-15T09:09:57;22.40;;;9.17;;
20832;SDS011;56075;51.264;7.150;2024-01-15T09:12:29;22.93;;;8.80;;
20832;SDS011;56075;51.264;7.150;2024-01-15T09:15:01;22.43;;;8.83;;
20832;SDS011;56075;51.264;7.150;2024-01-15T09:17:34;20.13;;;8.87;;
20832;SDS011;56075;51.264;7.150;2024-01-15T09:20:06;18.27;;;7.47;;
20832;SDS011;56075;51.264;7.150;2024-01-15T09:22:38;17.77;;;7.07;;
20832;SDS011;56075;51.264;7.150;2024-01-15T09:25:12;19.90;;;7.87;;
20832;SDS011;56075;51.264;7.150;2024-01-15T09:27:44;17.03;;;6.67;;
20832;SDS011;56075;51.264;7.150;2024-01-15T09:30:15;17.87;;;6.67;;
20832;SDS011;56075;51.264;7.150;2024-01-15T09:32:47;17.47;;;6.40;;
20832;SDS011;56075;51.264;7.150;2024-01-15T09:35:19;12.60;;;5.37;;
20832;SDS011;56075;51.264;7.150;2024-01-15T09:37:51;14.73;;;5.07;;
20832;SDS011;56075;51.264;7.150;2024-01-15T09:40:22;12.17;;;5.43;;
20832;SDS011;56075;51.264;7.150;2024-01-15T09:42:54;11.80;;;5.03;;
20832;SDS011;56075;51.264;7.150;2024-01-15T09:45:26;12.73;;;4.97;;
20832;SDS011;56075;51.264;7.150;2024-01-15T09:47:57;10.03;;;5.00;;
20832;SDS011;56075;51.264;7.150;2024-01-15T09:50:29;9.83;;;4.53;;
20832;SDS011;56075;51.264;7.150;2024-01-15T09:53:01;10.60;;;4.13;;
20832;SDS011;56075;51.264;7.150;2024-01-15T09:55:32;10.80;;;4.43;;
20832;SDS011;56075;51.264;7.150;2024-01-15T09:58:04;9.10;;;4.47;;
20832;SDS011;56075;51.264;7.150;2024-01-15T10:00:35;9.17;;;4.10;;
20832;SDS011;56075;51.264;7.150;2024-01-15T10:03:09;11.67;;;5.07;;
20832;SDS011;56075;51.264;7.150;2024-01-15T10:05:41;14.77;;;5.63;;
20832;SDS011;56075;51.264;7.150;2024-01-15T10:08:14;13.40;;;5.57;;
20832;SDS011;56075;51.264;7.150;2024-01-15T10:10:45;16.03;;;5.33;;
20832;SDS011;56075;51.264;7.150;2024-01-15T10:13:17;11.13;;;5.10;;
20832;SDS011;56075;51.264;7.150;2024-01-15T10:15:48;12.90;;;4.93;;
20832;SDS011;56075;51.264;7.150;2024-01-15T10:18:20;9.13;;;4.47;;
20832;SDS011;56075;51.264;7.150;2024-01-15T10:20:51;9.97;;;4.20;;
20832;SDS011;56075;51.264;7.150;2024-01-15T10:23:24;10.20;;;4.70;;
20832;SDS011;56075;51.264;7.150;2024-01-15T10:25:56;9.83;;;4.77;;
20832;SDS011;56075;51.264;7.150;2024-01-15T10:28:28;12.30;;;6.03;;
20832;SDS011;56075;51.264;7.150;2024-01-15T10:31:00;9.17;;;4.50;;
20832;SDS011;56075;51.264;7.150;2024-01-15T10:33:32;8.83;;;3.87;;
20832;SDS011;56075;51.264;7.150;2024-01-15T10:36:03;8.93;;;3.80;;
20832;SDS011;56075;51.264;7.150;2024-01-15T10:38:40;10.47;;;4.53;;
20832;SDS011;56075;51.264;7.150;2024-01-15T10:41:13;12.03;;;3.93;;
20832;SDS011;56075;51.264;7.150;2024-01-15T10:43:45;11.10;;;4.50;;
20832;SDS011;56075;51.264;7.150;2024-01-15T10:46:16;9.00;;;3.80;;
20832;SDS011;56075;51.264;7.150;2024-01-15T10:48:48;7.33;;;3.87;;
20832;SDS011;56075;51.264;7.150;2024-01-15T10:51:19;8.30;;;3.60;;
20832;SDS011;56075;51.264;7.150;2024-01-15T10:53:51;7.50;;;4.00;;
20832;SDS011;56075;51.264;7.150;2024-01-15T10:56:23;7.57;;;3.90;;
20832;SDS011;56075;51.264;7.150;2024-01-15T10:58:56;7.47;;;3.67;;
20832;SDS011;56075;51.264;7.150;2024-01-15T11:01:28;7.67;;;3.37;;
20832;SDS011;56075;51.264;7.150;2024-01-15T11:04:00;9.60;;;3.77;;
20832;SDS011;56075;51.264;7.150;2024-01-15T11:06:40;6.67;;;3.00;;
20832;SDS011;56075;51.264;7.150;2024-01-15T11:09:26;6.77;;;3.13;;
20832;SDS011;56075;51.264;7.150;2024-01-15T11:12:11;8.50;;;3.17;;
20832;SDS011;56075;51.264;7.150;2024-01-15T11:14:46;8.33;;;3.50;;
20832;SDS011;56075;51.264;7.150;2024-01-15T11:17:18;9.93;;;3.30;;
20832;SDS011;56075;51.264;7.150;2024-01-15T11:19:50;6.83;;;3.37;;
20832;SDS011;56075;51.264;7.150;2024-01-15T11:25:03;7.73;;;3.47;;
20832;SDS011;56075;51.264;7.150;2024-01-15T11:27:45;7.10;;;3.23;;
20832;SDS011;56075;51.264;7.150;2024-01-15T11:30:24;9.67;;;3.47;;
20832;SDS011;56075;51.264;7.150;2024-01-15T11:32:56;6.97;;;3.37;;
20832;SDS011;56075;51.264;7.150;2024-01-15T11:35:45;7.70;;;3.37;;
20832;SDS011;56075;51.264;7.150;2024-01-15T11:38:28;7.93;;;3.23;;
20832;SDS011;56075;51.264;7.150;2024-01-15T11:40:59;5.57;;;2.33;;
20832;SDS011;56075;51.264;7.150;2024-01-15T11:43:32;8.20;;;2.47;;
20832;SDS011;56075;51.264;7.150;2024-01-15T11:46:04;6.10;;;2.80;;
20832;SDS011;56075;51.264;7.150;2024-01-15T11:48:44;7.43;;;3.27;;
20832;SDS011;56075;51.264;7.150;2024-01-15T11:51:16;7.37;;;3.27;;
20832;SDS011;56075;51.264;7.150;2024-01-15T11:53:49;5.27;;;2.60;;
20832;SDS011;56075;51.264;7.150;2024-01-15T11:56:26;9.10;;;3.30;;
20832;SDS011;56075;51.264;7.150;2024-01-15T11:58:58;7.57;;;2.80;;
20832;SDS011;56075;51.264;7.150;2024-01-15T12:01:29;6.10;;;2.70;;
20832;SDS011;56075;51.264;7.150;2024-01-15T12:04:00;4.60;;;2.87;;
20832;SDS011;56075;51.264;7.150;2024-01-15T12:06:32;7.27;;;2.60;;
20832;SDS011;56075;51.264;7.150;2024-01-15T12:09:07;4.93;;;2.07;;
20832;SDS011;56075;51.264;7.150;2024-01-15T12:11:39;7.23;;;2.53;;
20832;SDS011;56075;51.264;7.150;2024-01-15T12:14:16;5.20;;;2.00;;
20832;SDS011;56075;51.264;7.150;2024-01-15T12:16:47;6.87;;;2.40;;
20832;SDS011;56075;51.264;7.150;2024-01-15T12:19:19;9.53;;;2.50;;
20832;SDS011;56075;51.264;7.150;2024-01-15T12:21:50;8.43;;;2.60;;
20832;SDS011;56075;51.264;7.150;2024-01-15T12:24:22;10.37;;;2.90;;
20832;SDS011;56075;51.264;7.150;2024-01-15T12:26:53;10.83;;;2.73;;
20832;SDS011;56075;51.264;7.150;2024-01-15T12:29:25;6.87;;;2.57;;
20832;SDS011;56075;51.264;7.150;2024-01-15T12:31:57;5.40;;;2.07;;
20832;SDS011;56075;51.264;7.150;2024-01-15T12:34:29;6.33;;;2.30;;
20832;SDS011;56075;51.264;7.150;2024-01-15T12:37:01;9.03;;;2.50;;
20832;SDS011;56075;51.264;7.150;2024-01-15T12:39:36;3.80;;;1.90;;
20832;SDS011;56075;51.264;7.150;2024-01-15T12:42:07;6.40;;;2.00;;
20832;SDS011;56075;51.264;7.150;2024-01-15T12:44:39;12.17;;;2.50;;
20832;SDS011;56075;51.264;7.150;2024-01-15T12:47:10;6.57;;;2.30;;
20832;SDS011;56075;51.264;7.150;2024-01-15T12:49:42;8.07;;;2.47;;
20832;SDS011;56075;51.264;7.150;2024-01-15T12:52:13;8.23;;;2.40;;
20832;SDS011;56075;51.264;7.150;2024-01-15T12:54:45;6.80;;;2.10;;
20832;SDS011;56075;51.264;7.150;2024-01-15T12:57:16;4.53;;;2.37;;
20832;SDS011;56075;51.264;7.150;2024-01-15T12:59:48;7.60;;;2.53;;
20832;SDS011;56075;51.264;7.150;2024-01-15T13:02:20;4.93;;;2.40;;
20832;SDS011;56075;51.264;7.150;2024-01-15T13:04:51;7.23;;;2.90;;
20832;SDS011;56075;51.264;7.150;2024-01-15T13:07:24;7.37;;;2.60;;
20832;SDS011;56075;51.264;7.150;2024-01-15T13:09:56;6.77;;;2.70;;
20832;SDS011;56075;51.264;7.150;2024-01-15T13:12:28;7.87;;;3.00;;
20832;SDS011;56075;51.264;7.150;2024-01-15T13:14:59;7.93;;;3.00;;
20832;SDS011;56075;51.264;7.150;2024-01-15T13:17:33;9.40;;;2.90;;
20832;SDS011;56075;51.264;7.150;2024-01-15T13:20:05;7.23;;;3.33;;
20832;SDS011;56075;51.264;7.150;2024-01-15T13:22:37;9.17;;;3.27;;
20832;SDS011;56075;51.264;7.150;2024-01-15T13:25:10;10.37;;;3.93;;
20832;SDS011;56075;51.264;7.150;2024-01-15T13:27:42;8.03;;;3.47;;
20832;SDS011;56075;51.264;7.150;2024-01-15T13:30:13;10.00;;;3.63;;
20832;SDS011;56075;51.264;7.150;2024-01-15T13:32:45;12.87;;;4.10;;
20832;SDS011;56075;51.264;7.150;2024-01-15T13:35:17;12.73;;;4.23;;
20832;SDS011;56075;51.264;7.150;2024-01-15T13:37:48;10.37;;;3.77;;
20832;SDS011;56075;51.264;7.150;2024-01-15T13:40:20;11.77;;;4.33;;
20832;SDS011;56075;51.264;7.150;2024-01-15T13:42:51;12.37;;;3.87;;
20832;SDS011;56075;51.264;7.150;2024-01-15T13:45:23;10.67;;;3.83;;
20832;SDS011;56075;51.264;7.150;2024-01-15T13:47:54;8.77;;;4.10;;
20832;SDS011;56075;51.264;7.150;2024-01-15T13:50:25;12.30;;;4.60;;
20832;SDS011;56075;51.264;7.150;2024-01-15T13:52:58;11.30;;;4.37;;
20832;SDS011;56075;51.264;7.150;2024-01-15T13:55:29;9.33;;;4.07;;
20832;SDS011;56075;51.264;7.150;2024-01-15T13:58:01;12.20;;;4.47;;
20832;SDS011;56075;51.264;7.150;2024-01-15T14:00:36;9.77;;;3.80;;
20832;SDS011;56075;51.264;7.150;2024-01-15T14:03:08;12.07;;;4.53;;
20832;SDS011;56075;51.264;7.150;2024-01-15T14:05:39;8.77;;;4.30;;
20832;SDS011;56075;51.264;7.150;2024-01-15T14:08:11;11.77;;;4.07;;
20832;SDS011;56075;51.264;7.150;2024-01-15T14:10:42;12.93;;;4.70;;
20832;SDS011;56075;51.264;7.150;2024-01-15T14:13:14;9.13;;;3.50;;
20832;SDS011;56075;51.264;7.150;2024-01-15T14:15:45;11.03;;;3.60;;
20832;SDS011;56075;51.264;7.150;2024-01-15T14:18:19;9.63;;;3.17;;
20832;SDS011;56075;51.264;7.150;2024-01-15T14:20:50;10.10;;;2.93;;
20832;SDS011;56075;51.264;7.150;2024-01-15T14:23:22;5.83;;;2.80;;
20832;SDS011;56075;51.264;7.150;2024-01-15T14:25:53;9.10;;;2.63;;
20832;SDS011;56075;51.264;7.150;2024-01-15T14:28:25;4.33;;;2.87;;
20832;SDS011;56075;51.264;7.150;2024-01-15T14:30:56;12.33;;;2.90;;
20832;SDS011;56075;51.264;7.150;2024-01-15T14:33:30;5.90;;;2.93;;
20832;SDS011;56075;51.264;7.150;2024-01-15T14:36:02;5.63;;;2.93;;
20832;SDS011;56075;51.264;7.150;2024-01-15T14:38:33;7.10;;;3.00;;
20832;SDS011;56075;51.264;7.150;2024-01-15T14:41:05;7.60;;;3.20;;
20832;SDS011;56075;51.264;7.150;2024-01-15T14:43:36;4.93;;;2.73;;
20832;SDS011;56075;51.264;7.150;2024-01-15T14:46:08;5.70;;;2.80;;
20832;SDS011;56075;51.264;7.150;2024-01-15T14:48:40;6.10;;;3.10;;
20832;SDS011;56075;51.264;7.150;2024-01-15T14:51:11;6.80;;;2.60;;
20832;SDS011;56075;51.264;7.150;2024-01-15T14:53:43;6.73;;;2.90;;
20832;SDS011;56075;51.264;7.150;2024-01-15T14:56:15;5.73;;;2.40;;
20832;SDS011;56075;51.264;7.150;2024-01-15T14:58:46;5.13;;;2.50;;
20832;SDS011;56075;51.264;7.150;2024-01-15T15:01:17;5.47;;;2.83;;